Time;durP1;ratioP1;P1;durP2;ratioP2;P2;SDS_P1;SDS_P2;PMS_P1;PMS_P2;Temp;Humidity;BMP_temperature;BMP_pressure;BME280_temperature;BME280_humidity;BME280_pressure;Samples;Min_cycle;Max_cycle;Signal;HPM_P1;HPM_P2
2022/01/13 00:01:11;;;;;;;55.30;33.40;;;;;;;;;;4983824;28;20046;-69
2022/01/13 00:03:37;;;;;;;50.22;31.27;;;;;;;;;;4986724;28;20117;-70
2022/01/13 00:06:03;;;;;;;53.72;32.65;;;;;;;;;;4989646;28;20121;-68
2022/01/13 00:08:28;;;;;;;46.70;31.30;;;;;;;;;;4986137;28;20137;-70
2022/01/13 00:10:54;;;;;;;45.00;30.15;;;;;;;;;;4987933;28;20037;-70
2022/01/13 00:13:24;;;;;;;41.35;28.23;;;;;;;;;;4982511;28;20101;-70
2022/01/13 00:16:12;;;;;;;37.83;28.38;;;;;;;;;;4987845;28;20050;-69
2022/01/13 00:18:39;;;;;;;43.67;29.58;;;;;;;;;;4983575;28;20421;-70
2022/01/13 00:26:13;;;;;;;51.22;31.15;;;;;;;;;;4987233;28;20046;-70
2022/01/13 00:28:39;;;;;;;25.92;21.65;;;;;;;;;;4984996;28;20058;-69
2022/01/13 00:31:06;;;;;;;40.65;26.83;;;;;;;;;;4985796;28;20050;-69
2022/01/13 00:33:32;;;;;;;44.08;27.52;;;;;;;;;;4994442;28;20053;-70
2022/01/13 00:36:00;;;;;;;39.13;24.67;;;;;;;;;;5022824;28;20091;-70
2022/01/13 00:38:30;;;;;;;45.10;29.42;;;;;;;;;;5019269;28;20040;-70
2022/01/13 00:40:57;;;;;;;44.40;28.52;;;;;;;;;;5014920;28;20037;-69
2022/01/13 00:43:23;;;;;;;42.90;29.55;;;;;;;;;;5020208;28;20056;-69
2022/01/13 00:45:49;;;;;;;62.20;36.92;;;;;;;;;;5019229;28;20745;-70
2022/01/13 00:48:16;;;;;;;36.83;26.70;;;;;;;;;;5017415;28;20444;-69
2022/01/13 00:50:42;;;;;;;41.75;27.52;;;;;;;;;;5018965;28;20044;-69
2022/01/13 00:53:07;;;;;;;41.05;27.83;;;;;;;;;;5018786;28;20736;-70
2022/01/13 00:55:46;;;;;;;44.72;28.60;;;;;;;;;;5015961;28;20030;-70
2022/01/13 00:58:13;;;;;;;49.53;30.15;;;;;;;;;;5021919;28;20139;-70
2022/01/13 01:00:39;;;;;;;42.95;28.55;;;;;;;;;;5024079;28;20033;-70
2022/01/13 01:03:07;;;;;;;46.40;28.73;;;;;;;;;;5020494;28;20513;-70
2022/01/13 01:05:34;;;;;;;49.55;29.05;;;;;;;;;;5019518;28;20099;-71
2022/01/13 01:08:02;;;;;;;44.10;29.38;;;;;;;;;;5018694;28;20040;-70
2022/01/13 01:10:27;;;;;;;39.20;28.67;;;;;;;;;;5016556;28;20115;-70
2022/01/13 01:12:53;;;;;;;43.05;29.17;;;;;;;;;;5018811;28;20034;-69
2022/01/13 01:15:19;;;;;;;48.70;27.63;;;;;;;;;;5021150;28;20083;-70
2022/01/13 01:17:50;;;;;;;42.88;29.40;;;;;;;;;;5020289;28;20053;-70
2022/01/13 01:20:16;;;;;;;45.55;28.58;;;;;;;;;;5017348;28;20577;-70
2022/01/13 01:22:56;;;;;;;45.33;31.55;;;;;;;;;;5017605;28;20077;-70
2022/01/13 01:27:58;;;;;;;44.92;28.30;;;;;;;;;;5018058;28;20041;-70
2022/01/13 01:30:35;;;;;;;48.22;29.52;;;;;;;;;;5019568;28;20041;-70
2022/01/13 01:33:02;;;;;;;43.47;28.30;;;;;;;;;;5018652;28;20786;-69
2022/01/13 01:35:28;;;;;;;40.63;26.92;;;;;;;;;;5020261;28;20139;-69
2022/01/13 01:37:54;;;;;;;49.80;29.40;;;;;;;;;;5018231;28;20040;-70
2022/01/13 01:40:21;;;;;;;42.00;27.45;;;;;;;;;;5018164;28;20116;-69
2022/01/13 01:42:47;;;;;;;38.95;28.48;;;;;;;;;;5019905;28;20048;-69
2022/01/13 01:45:14;;;;;;;39.90;26.95;;;;;;;;;;5019631;28;20034;-69
2022/01/13 01:47:43;;;;;;;35.58;24.60;;;;;;;;;;5020643;28;20443;-70
2022/01/13 01:50:17;;;;;;;45.47;29.50;;;;;;;;;;5015437;28;20077;-70
2022/01/13 01:52:47;;;;;;;41.40;28.00;;;;;;;;;;5013786;28;20121;-69
2022/01/13 01:55:14;;;;;;;39.42;27.75;;;;;;;;;;5015866;28;20095;-70
2022/01/13 01:57:40;;;;;;;39.30;27.52;;;;;;;;;;5018751;28;20416;-70
2022/01/13 02:00:10;;;;;;;41.33;28.20;;;;;;;;;;5025162;28;20484;-70
2022/01/13 02:02:38;;;;;;;41.70;28.85;;;;;;;;;;5018406;28;20153;-69
2022/01/13 02:05:05;;;;;;;35.00;26.77;;;;;;;;;;5020709;28;20049;-69
2022/01/13 02:07:30;;;;;;;38.35;27.13;;;;;;;;;;5018276;28;20042;-70
2022/01/13 02:09:56;;;;;;;42.03;27.42;;;;;;;;;;5022064;28;20038;-70
2022/01/13 02:12:40;;;;;;;41.97;27.27;;;;;;;;;;5021601;28;20037;-70
2022/01/13 02:17:41;;;;;;;30.30;22.85;;;;;;;;;;5020355;28;20109;-69
2022/01/13 02:20:15;;;;;;;33.67;24.58;;;;;;;;;;5018675;28;20033;-69
2022/01/13 02:22:40;;;;;;;39.85;27.38;;;;;;;;;;5017213;28;20041;-70
2022/01/13 02:25:06;;;;;;;39.97;26.33;;;;;;;;;;5014710;28;20033;-70
2022/01/13 02:27:32;;;;;;;42.90;29.17;;;;;;;;;;5020348;28;20037;-69
2022/01/13 02:29:58;;;;;;;26.30;21.02;;;;;;;;;;5024535;28;20418;-69
2022/01/13 02:32:24;;;;;;;29.88;23.38;;;;;;;;;;5022500;28;20072;-69
2022/01/13 02:34:50;;;;;;;32.33;22.30;;;;;;;;;;5024116;28;20049;-69
2022/01/13 02:37:16;;;;;;;34.47;24.90;;;;;;;;;;5023054;28;20063;-69
2022/01/13 02:39:42;;;;;;;35.53;25.13;;;;;;;;;;5014239;28;20042;-69
2022/01/13 02:42:14;;;;;;;34.92;25.42;;;;;;;;;;5018839;28;20448;-70
2022/01/13 02:45:16;;;;;;;36.70;26.70;;;;;;;;;;5026784;28;20038;-69
2022/01/13 02:47:47;;;;;;;32.13;23.95;;;;;;;;;;5022873;28;20053;-69
2022/01/13 02:50:14;;;;;;;38.70;26.17;;;;;;;;;;5023199;28;20029;-68
2022/01/13 02:52:40;;;;;;;31.95;24.20;;;;;;;;;;5020684;28;20033;-70
2022/01/13 02:55:06;;;;;;;43.85;27.42;;;;;;;;;;5022384;28;20117;-69
2022/01/13 02:57:32;;;;;;;32.53;24.73;;;;;;;;;;5021147;28;20059;-70
2022/01/13 02:59:59;;;;;;;38.92;26.05;;;;;;;;;;5015453;28;20426;-70
2022/01/13 03:02:30;;;;;;;35.75;26.92;;;;;;;;;;5025891;28;20116;-71
2022/01/13 03:04:56;;;;;;;40.97;26.70;;;;;;;;;;5015116;28;20030;-68
2022/01/13 03:07:22;;;;;;;31.88;25.10;;;;;;;;;;5019585;28;20514;-70
2022/01/13 03:09:47;;;;;;;39.15;27.42;;;;;;;;;;5021806;28;20049;-70
2022/01/13 03:12:13;;;;;;;39.65;27.15;;;;;;;;;;5013997;28;20073;-70
2022/01/13 03:14:39;;;;;;;35.22;27.10;;;;;;;;;;5012317;28;20439;-70
2022/01/13 03:17:05;;;;;;;35.40;25.52;;;;;;;;;;5026412;28;20037;-70
2022/01/13 03:19:30;;;;;;;38.40;26.63;;;;;;;;;;5025381;28;20042;-70
2022/01/13 03:21:56;;;;;;;37.83;26.02;;;;;;;;;;5036158;22;20309;-69
2022/01/13 03:24:22;;;;;;;42.67;28.10;;;;;;;;;;5024833;28;20400;-68
2022/01/13 03:26:49;;;;;;;37.97;26.75;;;;;;;;;;5027355;28;20041;-69
2022/01/13 03:29:16;;;;;;;34.70;25.63;;;;;;;;;;5027111;28;20045;-69
2022/01/13 03:31:44;;;;;;;36.83;25.48;;;;;;;;;;5023060;28;20081;-69
2022/01/13 03:34:13;;;;;;;35.10;24.92;;;;;;;;;;5024589;28;20084;-68
2022/01/13 03:36:40;;;;;;;36.30;26.33;;;;;;;;;;5008383;28;20034;-68
2022/01/13 03:39:08;;;;;;;33.38;23.70;;;;;;;;;;5016163;28;20068;-68
2022/01/13 03:41:34;;;;;;;37.15;24.88;;;;;;;;;;5017794;28;20044;-68
2022/01/13 03:44:06;;;;;;;39.05;26.30;;;;;;;;;;5026765;28;20105;-68
2022/01/13 03:46:36;;;;;;;34.85;25.92;;;;;;;;;;5016385;28;20037;-68
2022/01/13 03:49:03;;;;;;;34.00;24.48;;;;;;;;;;5030539;28;20038;-68
2022/01/13 03:52:04;;;;;;;39.15;26.52;;;;;;;;;;5027176;28;20512;-68
2022/01/13 03:54:32;;;;;;;39.97;26.80;;;;;;;;;;5028785;28;20365;-68
2022/01/13 03:57:10;;;;;;;33.83;25.65;;;;;;;;;;5012214;28;20490;-68
2022/01/13 04:00:07;;;;;;;31.15;24.77;;;;;;;;;;5023384;28;20511;-68
2022/01/13 04:02:39;;;;;;;33.25;24.15;;;;;;;;;;5027116;28;20049;-68
2022/01/13 04:05:05;;;;;;;37.58;26.45;;;;;;;;;;5026130;28;20091;-68
2022/01/13 04:07:30;;;;;;;42.22;28.42;;;;;;;;;;5028683;28;20041;-68
2022/01/13 04:09:56;;;;;;;29.85;22.35;;;;;;;;;;5017140;28;20117;-68
2022/01/13 04:12:25;;;;;;;29.55;21.38;;;;;;;;;;5029577;28;20047;-68
2022/01/13 04:14:56;;;;;;;23.33;18.80;;;;;;;;;;5026329;28;20045;-68
2022/01/13 04:17:23;;;;;;;33.88;26.80;;;;;;;;;;5026525;28;20060;-68
2022/01/13 04:19:50;;;;;;;36.33;25.67;;;;;;;;;;5029935;28;20088;-68
2022/01/13 04:22:16;;;;;;;39.10;27.45;;;;;;;;;;5025922;28;20033;-68
2022/01/13 04:24:52;;;;;;;39.40;25.48;;;;;;;;;;5039369;22;20096;-68
2022/01/13 04:27:24;;;;;;;38.42;26.98;;;;;;;;;;5019913;28;20049;-69
2022/01/13 04:30:11;;;;;;;33.90;26.70;;;;;;;;;;5021620;28;20033;-68
2022/01/13 04:32:37;;;;;;;38.95;26.15;;;;;;;;;;5021353;28;20041;-68
2022/01/13 04:35:03;;;;;;;39.40;27.25;;;;;;;;;;5018680;28;20041;-68
2022/01/13 04:37:29;;;;;;;36.08;25.98;;;;;;;;;;5006022;28;20042;-68
2022/01/13 04:39:54;;;;;;;38.67;27.02;;;;;;;;;;5007034;28;20041;-69
2022/01/13 04:42:20;;;;;;;38.92;28.25;;;;;;;;;;5010193;28;20057;-68
2022/01/13 04:44:45;;;;;;;37.50;25.75;;;;;;;;;;5010839;28;20038;-69
2022/01/13 04:47:11;;;;;;;43.20;28.25;;;;;;;;;;5011558;28;20046;-68
2022/01/13 04:49:38;;;;;;;36.28;27.02;;;;;;;;;;5010138;28;20080;-68
2022/01/13 04:52:04;;;;;;;34.85;25.63;;;;;;;;;;5012154;28;20058;-69
2022/01/13 04:54:29;;;;;;;37.85;26.98;;;;;;;;;;5008754;28;20488;-69
2022/01/13 04:57:15;;;;;;;37.92;26.70;;;;;;;;;;5004093;28;20045;-68
2022/01/13 04:59:41;;;;;;;38.40;27.05;;;;;;;;;;5016271;28;20402;-68
2022/01/13 05:02:07;;;;;;;38.80;25.75;;;;;;;;;;5008030;28;20488;-68
2022/01/13 05:04:33;;;;;;;45.30;28.38;;;;;;;;;;5007135;28;20543;-68
2022/01/13 05:06:58;;;;;;;39.53;27.05;;;;;;;;;;5009290;28;20066;-68
2022/01/13 05:09:24;;;;;;;35.63;25.65;;;;;;;;;;5009662;28;20128;-68
2022/01/13 05:11:50;;;;;;;35.50;25.70;;;;;;;;;;5005088;28;20211;-68
2022/01/13 05:14:15;;;;;;;35.42;24.23;;;;;;;;;;5009342;28;20025;-68
2022/01/13 05:17:44;;;;;;;37.55;25.80;;;;;;;;;;5008276;28;20037;-68
2022/01/13 05:19:41;;;;;;;37.13;25.77;;;;;;;;;;5011989;28;20050;-68
2022/01/13 05:22:15;;;;;;;32.38;24.00;;;;;;;;;;5006562;28;20080;-68
2022/01/13 05:24:44;;;;;;;35.80;25.75;;;;;;;;;;5010774;28;20030;-68
2022/01/13 05:27:10;;;;;;;35.15;24.45;;;;;;;;;;5012243;28;20048;-68
2022/01/13 05:29:36;;;;;;;39.83;25.38;;;;;;;;;;5008997;28;20105;-68
2022/01/13 05:32:01;;;;;;;37.95;24.17;;;;;;;;;;5001252;28;20072;-68
2022/01/13 05:34:28;;;;;;;34.15;25.23;;;;;;;;;;5012414;28;20033;-69
2022/01/13 05:36:53;;;;;;;34.50;24.45;;;;;;;;;;5011681;28;20138;-68
2022/01/13 05:39:19;;;;;;;41.45;25.70;;;;;;;;;;5008901;28;20116;-69
2022/01/13 05:41:44;;;;;;;33.80;23.98;;;;;;;;;;5006947;28;20034;-69
2022/01/13 05:44:10;;;;;;;35.83;24.98;;;;;;;;;;5009305;28;20473;-68
2022/01/13 05:46:35;;;;;;;42.80;25.67;;;;;;;;;;5007509;28;20164;-68
2022/01/13 05:49:01;;;;;;;39.15;25.38;;;;;;;;;;5007448;28;20037;-69
2022/01/13 05:51:27;;;;;;;31.38;25.13;;;;;;;;;;5005408;28;20508;-69
2022/01/13 05:53:53;;;;;;;36.15;26.58;;;;;;;;;;5011923;28;20345;-69
2022/01/13 05:56:18;;;;;;;33.95;24.23;;;;;;;;;;5011380;28;20091;-69
2022/01/13 05:58:44;;;;;;;36.03;26.17;;;;;;;;;;5007088;28;20477;-69
2022/01/13 06:01:10;;;;;;;32.03;24.02;;;;;;;;;;5004864;28;20030;-69
2022/01/13 06:03:35;;;;;;;34.67;24.27;;;;;;;;;;5009462;28;20686;-69
2022/01/13 06:06:01;;;;;;;41.78;27.27;;;;;;;;;;5007986;28;20038;-68
2022/01/13 06:08:26;;;;;;;35.95;25.70;;;;;;;;;;5007202;28;20397;-69
2022/01/13 06:10:52;;;;;;;40.70;27.17;;;;;;;;;;5008279;28;20037;-68
2022/01/13 06:13:18;;;;;;;35.53;25.17;;;;;;;;;;5009961;28;20038;-68
2022/01/13 06:15:43;;;;;;;39.72;26.55;;;;;;;;;;5007889;28;20058;-68
2022/01/13 06:18:14;;;;;;;43.70;27.02;;;;;;;;;;5004215;28;20458;-69
2022/01/13 06:20:40;;;;;;;33.42;24.83;;;;;;;;;;5007772;28;20046;-68
2022/01/13 06:23:07;;;;;;;39.33;24.77;;;;;;;;;;5006062;28;20116;-69
2022/01/13 06:25:35;;;;;;;37.80;24.58;;;;;;;;;;5007622;28;20147;-68
2022/01/13 06:28:01;;;;;;;33.70;24.10;;;;;;;;;;5010295;28;20040;-68
2022/01/13 06:30:27;;;;;;;33.92;25.45;;;;;;;;;;5008320;28;20350;-68
2022/01/13 06:32:52;;;;;;;29.02;22.73;;;;;;;;;;5006801;28;20053;-68
2022/01/13 06:35:18;;;;;;;34.92;26.13;;;;;;;;;;5016259;28;20045;-68
2022/01/13 06:37:44;;;;;;;36.30;24.15;;;;;;;;;;5010451;28;20633;-68
2022/01/13 06:40:11;;;;;;;21.08;18.65;;;;;;;;;;4983658;28;20464;-68
2022/01/13 06:42:37;;;;;;;28.80;22.67;;;;;;;;;;5014158;28;20445;-68
2022/01/13 06:45:05;;;;;;;36.65;22.73;;;;;;;;;;5014690;28;20033;-68
2022/01/13 06:47:30;;;;;;;36.85;24.38;;;;;;;;;;5010803;28;20036;-68
2022/01/13 06:49:56;;;;;;;40.25;25.73;;;;;;;;;;5008396;28;20519;-68
2022/01/13 06:52:21;;;;;;;32.67;25.80;;;;;;;;;;5010955;28;20412;-69
2022/01/13 06:54:48;;;;;;;75.10;37.15;;;;;;;;;;5001054;28;20048;-68
2022/01/13 06:57:15;;;;;;;40.72;27.05;;;;;;;;;;4991855;28;20033;-68
2022/01/13 06:59:42;;;;;;;34.00;24.30;;;;;;;;;;5007087;28;20057;-68
2022/01/13 07:02:07;;;;;;;41.28;26.95;;;;;;;;;;5003704;28;20548;-69
2022/01/13 07:04:34;;;;;;;36.17;25.33;;;;;;;;;;5000111;28;20132;-68
2022/01/13 07:06:59;;;;;;;39.47;27.30;;;;;;;;;;5002612;28;20117;-68
2022/01/13 07:09:25;;;;;;;43.90;30.27;;;;;;;;;;5002875;28;20145;-66
2022/01/13 07:11:51;;;;;;;34.30;26.25;;;;;;;;;;5005559;28;20497;-67
2022/01/13 07:14:17;;;;;;;29.88;23.30;;;;;;;;;;5006637;28;20080;-68
2022/01/13 07:16:44;;;;;;;33.35;24.45;;;;;;;;;;5011718;28;20041;-69
2022/01/13 07:19:12;;;;;;;33.00;24.50;;;;;;;;;;5011641;28;20029;-69
2022/01/13 07:21:39;;;;;;;32.53;23.23;;;;;;;;;;4992593;28;20044;-69
2022/01/13 07:24:05;;;;;;;34.38;25.48;;;;;;;;;;5011358;28;20077;-69
2022/01/13 07:26:31;;;;;;;38.08;25.73;;;;;;;;;;5017452;28;20413;-69
2022/01/13 07:28:57;;;;;;;41.70;25.15;;;;;;;;;;5010758;28;20048;-69
2022/01/13 07:31:23;;;;;;;39.03;26.48;;;;;;;;;;5010179;28;20132;-69
2022/01/13 07:33:48;;;;;;;37.83;26.33;;;;;;;;;;5017270;28;20512;-68
2022/01/13 07:36:14;;;;;;;35.15;25.33;;;;;;;;;;5003608;28;20076;-69
2022/01/13 07:38:40;;;;;;;28.02;22.15;;;;;;;;;;5005908;28;20447;-69
2022/01/13 07:41:06;;;;;;;32.70;24.67;;;;;;;;;;5009803;28;20037;-68
2022/01/13 07:43:32;;;;;;;32.67;23.60;;;;;;;;;;5011514;28;20091;-70
2022/01/13 07:45:58;;;;;;;30.95;23.60;;;;;;;;;;5010145;28;20045;-69
2022/01/13 07:48:25;;;;;;;27.40;22.75;;;;;;;;;;5010924;28;20048;-69
2022/01/13 07:50:51;;;;;;;31.45;23.45;;;;;;;;;;5013951;28;20040;-69
2022/01/13 07:53:17;;;;;;;34.15;25.13;;;;;;;;;;5009749;28;20417;-69
2022/01/13 07:55:43;;;;;;;37.60;24.52;;;;;;;;;;5010043;28;20034;-70
2022/01/13 07:58:10;;;;;;;41.50;29.63;;;;;;;;;;4992502;28;20037;-68
2022/01/13 08:00:36;;;;;;;30.85;22.42;;;;;;;;;;5009441;28;20121;-71
2022/01/13 08:03:02;;;;;;;29.65;22.42;;;;;;;;;;5011137;28;20294;-68
2022/01/13 08:05:27;;;;;;;27.30;24.00;;;;;;;;;;5019871;28;20392;-68
2022/01/13 08:07:53;;;;;;;21.40;18.33;;;;;;;;;;5019887;28;20486;-67
2022/01/13 08:10:18;;;;;;;30.45;23.70;;;;;;;;;;5011766;28;20026;-67
2022/01/13 08:12:44;;;;;;;32.55;24.45;;;;;;;;;;5009890;28;20464;-69
2022/01/13 08:15:13;;;;;;;32.42;23.92;;;;;;;;;;5010574;28;20029;-69
2022/01/13 08:20:29;;;;;;;41.50;26.08;;;;;;;;;;5010972;28;20033;-69
2022/01/13 08:22:55;;;;;;;32.78;23.35;;;;;;;;;;5010024;28;20128;-68
2022/01/13 08:25:21;;;;;;;31.77;22.85;;;;;;;;;;5010031;28;20672;-69
2022/01/13 08:27:47;;;;;;;38.58;24.10;;;;;;;;;;5009409;28;20125;-69
2022/01/13 08:30:13;;;;;;;34.78;25.25;;;;;;;;;;5008378;28;20368;-70
2022/01/13 08:32:38;;;;;;;32.17;24.27;;;;;;;;;;5016756;28;20124;-67
2022/01/13 08:35:05;;;;;;;30.25;23.60;;;;;;;;;;5010738;28;20047;-69
2022/01/13 08:37:32;;;;;;;26.73;23.00;;;;;;;;;;5010225;28;20049;-70
2022/01/13 08:40:03;;;;;;;29.73;22.23;;;;;;;;;;5011139;28;20034;-69
2022/01/13 08:42:29;;;;;;;32.15;23.20;;;;;;;;;;5013983;28;20034;-69
2022/01/13 08:44:55;;;;;;;29.40;22.48;;;;;;;;;;5007694;28;20430;-68
2022/01/13 08:47:21;;;;;;;29.67;22.80;;;;;;;;;;5005687;28;20034;-69
2022/01/13 08:49:46;;;;;;;30.15;22.27;;;;;;;;;;5014733;28;20044;-68
2022/01/13 08:52:12;;;;;;;28.95;21.38;;;;;;;;;;5009571;28;20046;-68
2022/01/13 08:54:38;;;;;;;25.05;19.75;;;;;;;;;;5008276;28;20552;-69
2022/01/13 08:57:06;;;;;;;29.45;23.08;;;;;;;;;;5008797;28;20042;-68
2022/01/13 08:59:32;;;;;;;30.65;23.13;;;;;;;;;;5017576;28;20034;-70
2022/01/13 09:01:57;;;;;;;30.90;22.85;;;;;;;;;;5009835;28;20030;-68
2022/01/13 09:04:23;;;;;;;34.35;23.45;;;;;;;;;;5010095;28;20492;-69
2022/01/13 09:06:49;;;;;;;30.60;22.95;;;;;;;;;;5009329;28;20225;-69
2022/01/13 09:09:15;;;;;;;31.80;22.65;;;;;;;;;;5010646;28;20045;-69
2022/01/13 09:11:42;;;;;;;30.20;21.98;;;;;;;;;;5002825;28;20037;-68
2022/01/13 09:14:08;;;;;;;35.90;25.70;;;;;;;;;;4996083;28;20135;-68
2022/01/13 09:16:41;;;;;;;29.42;23.10;;;;;;;;;;5009331;28;20512;-70
2022/01/13 09:19:12;;;;;;;27.48;21.73;;;;;;;;;;4988315;28;20041;-68
2022/01/13 09:21:41;;;;;;;31.88;25.00;;;;;;;;;;5004776;28;20049;-70
2022/01/13 09:24:12;;;;;;;27.13;22.27;;;;;;;;;;4997037;28;20038;-69
2022/01/13 09:26:38;;;;;;;24.90;22.17;;;;;;;;;;5013648;28;20038;-67
2022/01/13 09:29:05;;;;;;;32.92;24.92;;;;;;;;;;5009963;28;20048;-70
2022/01/13 09:31:32;;;;;;;27.33;22.58;;;;;;;;;;5003543;28;20092;-69
2022/01/13 09:34:01;;;;;;;30.88;24.15;;;;;;;;;;5012717;28;20576;-70
2022/01/13 09:36:27;;;;;;;29.73;23.20;;;;;;;;;;5009887;28;20310;-70
2022/01/13 09:38:53;;;;;;;28.70;23.77;;;;;;;;;;5009966;28;20115;-69
2022/01/13 09:41:24;;;;;;;31.17;23.80;;;;;;;;;;5010561;28;20469;-69
2022/01/13 09:43:50;;;;;;;28.95;24.02;;;;;;;;;;5010389;28;20042;-68
2022/01/13 09:46:16;;;;;;;28.55;23.42;;;;;;;;;;5004853;28;20041;-67
2022/01/13 09:48:43;;;;;;;29.17;23.58;;;;;;;;;;5010156;28;20396;-69
2022/01/13 09:51:09;;;;;;;32.47;23.98;;;;;;;;;;5007834;28;20057;-69
2022/01/13 09:53:36;;;;;;;38.38;24.08;;;;;;;;;;5010041;28;20076;-68
2022/01/13 09:56:03;;;;;;;27.95;23.17;;;;;;;;;;5006989;28;20030;-69
2022/01/13 09:58:29;;;;;;;32.42;25.23;;;;;;;;;;5009334;28;20056;-70
2022/01/13 10:00:56;;;;;;;28.02;23.50;;;;;;;;;;5008519;28;20069;-70
2022/01/13 10:03:26;;;;;;;31.90;24.77;;;;;;;;;;5008369;28;20084;-69
2022/01/13 10:05:59;;;;;;;32.85;25.15;;;;;;;;;;5009639;28;20033;-69
2022/01/13 10:08:43;;;;;;;25.95;23.08;;;;;;;;;;5012907;28;20049;-69
2022/01/13 10:11:40;;;;;;;30.42;25.83;;;;;;;;;;5008838;28;20121;-69
2022/01/13 10:17:09;;;;;;;28.58;22.75;;;;;;;;;;4984195;28;20041;-70
2022/01/13 10:19:38;;;;;;;29.42;24.40;;;;;;;;;;4991588;28;20033;-69
2022/01/13 10:22:09;;;;;;;44.38;29.95;;;;;;;;;;5007933;28;20133;-68
2022/01/13 10:24:37;;;;;;;47.28;31.58;;;;;;;;;;5012331;28;20038;-68
2022/01/13 10:27:09;;;;;;;36.15;24.98;;;;;;;;;;5014893;28;20029;-68
2022/01/13 10:29:39;;;;;;;35.08;25.83;;;;;;;;;;5002609;28;20069;-69
2022/01/13 10:32:05;;;;;;;30.02;24.88;;;;;;;;;;4990600;28;20061;-69
2022/01/13 10:34:32;;;;;;;28.20;23.80;;;;;;;;;;5014382;28;20125;-68
2022/01/13 10:37:04;;;;;;;34.38;25.55;;;;;;;;;;5006146;28;20163;-69
2022/01/13 10:39:57;;;;;;;30.95;24.17;;;;;;;;;;4996135;28;20495;-69
2022/01/13 10:44:58;;;;;;;26.88;23.88;;;;;;;;;;5010281;28;20488;-69
2022/01/13 10:47:26;;;;;;;31.25;24.50;;;;;;;;;;5009244;28;20041;-69
2022/01/13 10:49:51;;;;;;;25.40;21.63;;;;;;;;;;5009292;28;20042;-69
2022/01/13 10:52:23;;;;;;;28.40;23.00;;;;;;;;;;5014069;28;20038;-70
2022/01/13 10:54:59;;;;;;;25.13;22.20;;;;;;;;;;5007825;28;20125;-69
2022/01/13 10:57:26;;;;;;;25.75;22.00;;;;;;;;;;5007842;28;20034;-70
2022/01/13 10:59:52;;;;;;;29.95;21.67;;;;;;;;;;5006424;28;20330;-70
2022/01/13 11:02:21;;;;;;;27.27;23.02;;;;;;;;;;5013613;28;20121;-70
2022/01/13 11:04:48;;;;;;;25.52;22.88;;;;;;;;;;5007464;28;20099;-71
2022/01/13 11:07:23;;;;;;;28.13;22.67;;;;;;;;;;5003211;28;20045;-71
2022/01/13 11:10:01;;;;;;;25.30;22.23;;;;;;;;;;5017811;28;20033;-70
2022/01/13 11:12:39;;;;;;;27.02;22.02;;;;;;;;;;5004270;28;20034;-71
2022/01/13 11:15:07;;;;;;;24.35;21.75;;;;;;;;;;5007588;28;20034;-70
2022/01/13 11:17:37;;;;;;;25.73;22.58;;;;;;;;;;5008619;28;20049;-70
2022/01/13 11:20:05;;;;;;;25.23;22.50;;;;;;;;;;5009431;28;20037;-70
2022/01/13 11:22:34;;;;;;;26.08;22.17;;;;;;;;;;4989205;28;20041;-71
2022/01/13 11:25:03;;;;;;;25.60;22.20;;;;;;;;;;5004607;28;20460;-70
2022/01/13 11:27:29;;;;;;;25.48;20.67;;;;;;;;;;5013947;28;20129;-70
2022/01/13 11:29:55;;;;;;;25.50;22.80;;;;;;;;;;4993979;28;20108;-70
2022/01/13 11:32:21;;;;;;;26.70;23.83;;;;;;;;;;5007457;28;20500;-71
2022/01/13 11:34:48;;;;;;;47.17;31.60;;;;;;;;;;5006238;28;20076;-70
2022/01/13 11:37:14;;;;;;;26.38;22.63;;;;;;;;;;5008377;28;20033;-71
2022/01/13 11:39:42;;;;;;;31.20;25.10;;;;;;;;;;5007499;28;20034;-70
2022/01/13 11:42:10;;;;;;;26.25;23.20;;;;;;;;;;5007401;28;20038;-70
2022/01/13 11:44:38;;;;;;;26.70;23.40;;;;;;;;;;5008122;28;20038;-70
2022/01/13 11:47:16;;;;;;;27.67;23.63;;;;;;;;;;5009321;28;20289;-69
2022/01/13 11:49:55;;;;;;;24.75;21.80;;;;;;;;;;4996037;28;20125;-70
2022/01/13 11:52:39;;;;;;;66.85;44.45;;;;;;;;;;4986645;28;20449;-71
2022/01/13 11:55:34;;;;;;;27.55;23.83;;;;;;;;;;5008025;28;20030;-69
2022/01/13 11:58:14;;;;;;;27.85;23.35;;;;;;;;;;4994864;28;20089;-71
2022/01/13 12:00:46;;;;;;;24.60;22.05;;;;;;;;;;5007692;28;20096;-71
2022/01/13 12:03:24;;;;;;;24.20;20.90;;;;;;;;;;5005891;28;20037;-70
2022/01/13 12:05:50;;;;;;;27.77;22.70;;;;;;;;;;5020455;28;20050;-69
2022/01/13 12:08:40;;;;;;;27.65;21.17;;;;;;;;;;5012324;28;20080;-69
2022/01/13 12:11:10;;;;;;;27.27;21.38;;;;;;;;;;4993800;28;20518;-70
2022/01/13 12:13:43;;;;;;;23.70;21.13;;;;;;;;;;5008531;28;20037;-69
2022/01/13 12:16:10;;;;;;;25.48;21.60;;;;;;;;;;5000270;28;20117;-69
2022/01/13 12:19:03;;;;;;;25.60;22.17;;;;;;;;;;5011210;28;20030;-69
2022/01/13 12:21:36;;;;;;;27.67;24.00;;;;;;;;;;5009206;28;20100;-70
2022/01/13 12:24:04;;;;;;;24.88;22.08;;;;;;;;;;5009768;28;20049;-70
2022/01/13 12:26:32;;;;;;;30.98;27.35;;;;;;;;;;5012004;28;20124;-70
2022/01/13 12:29:12;;;;;;;24.50;21.88;;;;;;;;;;5019338;28;20030;-69
2022/01/13 12:32:01;;;;;;;25.80;23.17;;;;;;;;;;5020017;28;20065;-69
2022/01/13 12:34:33;;;;;;;25.63;22.88;;;;;;;;;;4996377;28;20046;-69
2022/01/13 12:37:11;;;;;;;25.25;22.70;;;;;;;;;;5013456;28;20088;-69
2022/01/13 12:39:47;;;;;;;25.25;22.65;;;;;;;;;;5010357;28;20037;-69
2022/01/13 12:42:15;;;;;;;24.73;22.08;;;;;;;;;;5015792;28;20132;-70
2022/01/13 12:47:25;;;;;;;25.25;22.55;;;;;;;;;;5009712;28;20040;-69
2022/01/13 12:49:52;;;;;;;30.55;24.58;;;;;;;;;;5013005;28;20042;-68
2022/01/13 12:52:23;;;;;;;31.48;24.58;;;;;;;;;;5009499;28;20030;-69
2022/01/13 12:54:49;;;;;;;26.25;23.45;;;;;;;;;;5006757;28;20669;-70
2022/01/13 12:57:16;;;;;;;25.23;22.42;;;;;;;;;;5007016;28;20030;-69
2022/01/13 12:59:43;;;;;;;29.05;23.75;;;;;;;;;;5009719;28;20037;-69
2022/01/13 13:02:08;;;;;;;25.65;22.88;;;;;;;;;;5004642;28;20103;-69
2022/01/13 13:04:35;;;;;;;27.98;23.30;;;;;;;;;;5003714;28;20041;-69
2022/01/13 13:07:02;;;;;;;28.10;23.77;;;;;;;;;;5010018;28;20053;-69
2022/01/13 13:09:28;;;;;;;26.70;21.02;;;;;;;;;;5016017;28;20481;-69
2022/01/13 13:11:58;;;;;;;25.70;20.77;;;;;;;;;;4999999;28;20144;-69
2022/01/13 13:17:33;;;;;;;31.17;23.58;;;;;;;;;;5015398;28;20044;-68
2022/01/13 13:19:59;;;;;;;26.63;23.02;;;;;;;;;;5013226;28;20084;-70
2022/01/13 13:22:25;;;;;;;30.33;23.13;;;;;;;;;;5012065;28;20038;-69
2022/01/13 13:24:51;;;;;;;25.58;22.75;;;;;;;;;;5010288;28;20048;-69
2022/01/13 13:27:30;;;;;;;25.20;22.38;;;;;;;;;;4998815;28;20072;-69
2022/01/13 13:29:57;;;;;;;;;;;;;;;;;;5010768;28;20049;-70
2022/01/13 13:32:22;;;;;;;25.05;21.27;;;;;;;;;;5008091;28;19917;-69
2022/01/13 13:34:48;;;;;;;26.83;23.40;;;;;;;;;;5018782;28;20052;-69
2022/01/13 13:37:15;;;;;;;24.67;20.88;;;;;;;;;;5009932;28;20350;-69
2022/01/13 13:39:40;;;;;;;26.13;21.23;;;;;;;;;;5010049;28;20081;-69
2022/01/13 13:42:09;;;;;;;30.40;22.70;;;;;;;;;;5011687;28;20683;-69
2022/01/13 13:44:41;;;;;;;30.65;22.65;;;;;;;;;;5009480;28;20045;-70
2022/01/13 13:47:10;;;;;;;26.77;22.17;;;;;;;;;;4987650;28;20037;-69
2022/01/13 13:49:36;;;;;;;25.95;21.40;;;;;;;;;;5006147;28;20077;-68
2022/01/13 13:52:03;;;;;;;25.90;21.85;;;;;;;;;;4993398;28;20060;-69
2022/01/13 13:54:36;;;;;;;24.02;20.83;;;;;;;;;;4970347;28;20041;-68
2022/01/13 13:57:04;;;;;;;24.08;20.92;;;;;;;;;;5006071;28;20041;-70
2022/01/13 13:59:41;;;;;;;23.92;19.70;;;;;;;;;;5004956;28;20052;-69
2022/01/13 14:02:30;;;;;;;24.20;20.25;;;;;;;;;;5010371;28;20113;-70
2022/01/13 14:04:57;;;;;;;24.90;21.17;;;;;;;;;;4987546;28;20512;-70
2022/01/13 14:07:29;;;;;;;23.52;20.45;;;;;;;;;;5007893;28;20038;-70
2022/01/13 14:10:00;;;;;;;23.33;20.63;;;;;;;;;;5008813;28;20048;-70
2022/01/13 14:12:29;;;;;;;22.13;19.45;;;;;;;;;;5008471;28;20146;-69
2022/01/13 14:14:55;;;;;;;26.65;19.85;;;;;;;;;;5005671;28;20040;-68
2022/01/13 14:17:34;;;;;;;21.25;19.13;;;;;;;;;;5008969;28;20037;-70
2022/01/13 14:20:03;;;;;;;23.08;20.08;;;;;;;;;;4991010;28;20477;-70
2022/01/13 14:22:29;;;;;;;24.10;20.95;;;;;;;;;;5006183;28;20037;-69
2022/01/13 14:24:54;;;;;;;21.13;18.55;;;;;;;;;;4986660;28;20465;-69
2022/01/13 14:27:20;;;;;;;23.30;20.80;;;;;;;;;;5009281;28;20388;-69
2022/01/13 14:29:50;;;;;;;20.45;18.25;;;;;;;;;;5009697;28;20042;-70
2022/01/13 14:32:25;;;;;;;20.70;18.45;;;;;;;;;;4972528;28;20357;-69
2022/01/13 14:34:55;;;;;;;21.02;18.83;;;;;;;;;;5001569;28;20096;-69
2022/01/13 14:37:25;;;;;;;19.58;17.35;;;;;;;;;;5005763;28;20037;-69
2022/01/13 14:40:07;;;;;;;22.90;19.95;;;;;;;;;;5003276;28;20048;-69
2022/01/13 14:42:33;;;;;;;20.02;17.63;;;;;;;;;;5000115;28;20038;-69
2022/01/13 14:45:19;;;;;;;23.02;18.27;;;;;;;;;;4984216;28;20038;-69
2022/01/13 14:47:46;;;;;;;21.13;18.30;;;;;;;;;;5005199;28;20329;-68
2022/01/13 14:50:12;;;;;;;23.23;19.92;;;;;;;;;;5001915;28;20112;-68
2022/01/13 14:52:38;;;;;;;20.15;18.08;;;;;;;;;;5002832;28;20038;-68